KSVC

Grant County Airport

Silver City, New Mexico, USA
METAR KSVC 191915Z AUTO 17003G16KT 10SM SCT048 28/14 A3000 RMK AO2 LTG DSNT NE AND W T02760139
Observed Flight Rules
Sep-19 @ 19:15 UTC (12 minutes ago) Visual Flight Rules
Wind Visibility Clouds
170° at 3 knots
 Gusting to 16 knots
10 miles
  • Scattered at 4,800' AGL
Temperatures Readings
Current 28°C / 82°F
Dewpoint 14°C / 57°F
Humidity 42%
Altimeter 30" Hg
Pressure 1016 hPa
Elevation 1659
METAR KSVC 191915Z AUTO 17003G16KT 10SM SCT048 28/14 A3000 RMK AO2 LTG DSNT NE AND W T02760139
Observed Flight Rules
Sep-19 @ 19:15 UTC
(12 minutes ago)
VFR
Wind Visibility
170° at 3 knots
 Gusting to 16 knots
10 miles
Clouds
  • Scattered at 4,800' AGL
Temperature Dewpoint
28°C / 82°F 14°C / 57°F
Humidity Altimeter Pressure
42% 30" Hg 1016 hPa